עמוד ראשי
METAR-TAF:

METAR-TAF

שדות תעופה :

אנקורג', אלסקה, ארצות הברית

קו רוחב: 61-11N, קו אורך: 149-58W, גובה: 22מטר

תצפית מזג אוויר נוכחית

הדו"ח נערך לפני 56דקות, בשעה 10:53 UTC
רוח רגועה
טמפרטורת 13 צלסיוס
לחות 88%
לחץ 1017 hPa
ראות: 16.1קילומטר
שמיים נקיים

METAR: PALH 151053Z AUTO 00000KT 10SM CLR 13/11 A3004 RMK AO2 SLP173 T01280106 TSNO

זמן: 03:49 (11:49 UTC)


TAF: חסר

תצפיות ותחזיות מזג אוויר לגבי יותר מ- 4,000 שדות תעופה ברחבי העולם. דוחות METAR ו- TAF.

התחנות הזמינות מסומנות בנקודות צהובות ואדומות על גבי המפה.

העבר את העכבר לנקודה הצבעונית על מנת לראות את שם התחנה.

לאחר מכן, לחץ כדי לראות את תוכן ואת תחזיות מזג האוויר.

כדי לשנות את המפה: לחץ על הכפתורים הירוקים עם הפלוס השחור כדי להתקרב; על הכפתור הירוק עם המקף כדי להתרחק; או בחיצים הירוקים למפות סמוכות.


METAR-TAF: